createdAt,value
2018-12-29T00:00:02.970Z,1023.22
2018-12-29T00:05:02.909Z,1023.22
2018-12-29T00:10:03.541Z,1023.22
2018-12-29T00:15:03.070Z,1023.22
2018-12-29T00:20:02.657Z,1023.22
2018-12-29T00:25:03.227Z,1023.22
2018-12-29T00:30:02.717Z,1023.22
2018-12-29T00:35:03.338Z,1023.22
2018-12-29T00:40:02.805Z,1023.22
2018-12-29T00:45:03.464Z,1023.22
2018-12-29T00:50:02.928Z,1023.22
2018-12-29T00:55:03.418Z,1023.22
2018-12-29T01:00:02.918Z,1023.22
2018-12-29T01:05:03.599Z,1023.22
2018-12-29T01:10:03.172Z,1023.22
2018-12-29T01:15:10.649Z,1023.22
2018-12-29T01:20:03.054Z,1023.22
2018-12-29T01:25:03.644Z,1023.22
2018-12-29T01:30:03.156Z,1023.22
2018-12-29T01:35:02.697Z,1023.22
2018-12-29T01:40:03.165Z,1023.22
2018-12-29T01:45:02.700Z,1023.22
2018-12-29T01:50:03.403Z,1023.22
2018-12-29T01:55:02.858Z,1023.22
2018-12-29T02:00:03.377Z,1023.22
2018-12-29T02:05:02.991Z,1023.22
2018-12-29T02:10:03.591Z,1023.22
2018-12-29T02:15:03.017Z,1023.22
2018-12-29T02:20:03.553Z,1023.22
2018-12-29T02:25:03.024Z,1023.22
2018-12-29T02:30:03.592Z,1023.22
2018-12-29T02:35:03.163Z,1023.22
2018-12-29T02:40:02.779Z,1023.22
2018-12-29T02:45:03.461Z,1023.22
2018-12-29T02:50:03.106Z,1023.22
2018-12-29T02:55:03.681Z,1023.22
2018-12-29T03:00:03.282Z,1023.22
2018-12-29T03:05:02.773Z,1023.22
2018-12-29T03:10:03.272Z,1023.22
2018-12-29T03:15:02.940Z,1023.22
2018-12-29T03:20:03.548Z,1023.22
2018-12-29T03:25:03.004Z,1023.22
2018-12-29T03:30:03.808Z,1023.22
2018-12-29T03:35:03.297Z,1023.22
2018-12-29T03:40:02.796Z,1023.22
2018-12-29T03:45:03.358Z,1023.22
2018-12-29T03:50:02.877Z,1023.22
2018-12-29T03:55:03.388Z,1023.22
2018-12-29T04:00:02.908Z,1023.22
2018-12-29T04:05:03.401Z,1023.22
2018-12-29T04:10:02.881Z,1023.22
2018-12-29T04:15:03.346Z,1023.22
2018-12-29T04:20:02.884Z,1023.22
2018-12-29T04:25:03.441Z,1023.22
2018-12-29T04:30:02.922Z,1023.22
2018-12-29T04:35:03.373Z,1023.22
2018-12-29T04:40:02.891Z,1023.22
2018-12-29T04:45:03.379Z,1023.22
2018-12-29T04:50:02.909Z,1023.22
2018-12-29T04:55:03.325Z,1023.22
2018-12-29T05:00:03.063Z,1023.22
2018-12-29T05:05:03.648Z,1023.22
2018-12-29T05:10:03.220Z,1023.22
2018-12-29T05:15:02.755Z,1023.22
2018-12-29T05:20:03.262Z,1023.22
2018-12-29T05:25:02.796Z,1023.22
2018-12-29T05:30:03.262Z,1023.22
2018-12-29T05:35:02.806Z,1023.22
2018-12-29T05:40:03.406Z,1023.22
2018-12-29T05:45:04.180Z,1023.22
2018-12-29T05:50:02.671Z,1023.22
2018-12-29T05:55:03.142Z,1023.22
2018-12-29T06:00:02.642Z,1023.22
2018-12-29T06:05:03.085Z,1023.22
2018-12-29T06:10:02.680Z,1023.22
2018-12-29T06:15:03.203Z,1023.22
2018-12-29T06:20:02.767Z,1023.22
2018-12-29T06:25:03.345Z,1023.22
2018-12-29T06:30:02.775Z,1023.22
2018-12-29T06:35:03.230Z,1023.22
2018-12-29T06:40:02.811Z,1023.22
2018-12-29T06:45:03.180Z,1023.22
2018-12-29T06:50:02.680Z,1023.22
2018-12-29T06:55:03.261Z,1023.22
2018-12-29T07:00:02.759Z,1023.22
2018-12-29T07:05:03.299Z,1023.22
2018-12-29T07:10:02.782Z,1023.22
2018-12-29T07:15:05.485Z,1023.22
2018-12-29T07:20:03.320Z,1023.22
2018-12-29T07:25:02.816Z,1023.22
2018-12-29T07:30:03.370Z,1023.22
2018-12-29T07:35:02.875Z,1023.22
2018-12-29T07:40:03.354Z,1023.22
2018-12-29T07:45:02.813Z,1023.22
2018-12-29T07:50:03.297Z,1023.22
2018-12-29T07:55:02.809Z,1023.22
2018-12-29T08:00:03.288Z,1023.22
2018-12-29T08:05:02.932Z,1023.22
2018-12-29T08:10:03.466Z,1023.22
2018-12-29T08:15:02.964Z,1023.22
2018-12-29T08:20:03.594Z,1023.22
2018-12-29T08:25:03.157Z,1023.22
2018-12-29T08:30:02.642Z,1023.22
2018-12-29T08:35:03.080Z,1023.22
2018-12-29T08:40:03.628Z,1023.22
2018-12-29T08:45:03.086Z,1023.22
2018-12-29T08:50:03.548Z,1023.22
2018-12-29T08:55:03.010Z,1023.22
2018-12-29T09:00:03.505Z,1023.22
2018-12-29T09:05:03.015Z,1023.22
2018-12-29T09:10:03.568Z,1023.22
2018-12-29T09:15:03.249Z,1023.22
2018-12-29T09:20:02.739Z,1023.22
2018-12-29T09:25:03.239Z,1023.22
2018-12-29T09:30:03.065Z,1023.22
2018-12-29T09:35:02.693Z,1023.22
2018-12-29T09:40:03.265Z,1023.22
2018-12-29T09:45:02.866Z,1023.22
2018-12-29T09:50:03.434Z,1023.22
2018-12-29T09:55:02.906Z,1023.22
2018-12-29T10:00:03.375Z,1023.22
2018-12-29T10:05:03.003Z,1023.22
2018-12-29T10:10:02.709Z,1023.22
2018-12-29T10:15:03.140Z,1023.22
2018-12-29T10:20:02.804Z,1023.22
2018-12-29T10:25:03.288Z,1023.22
2018-12-29T10:30:02.768Z,1023.22
2018-12-29T10:35:03.361Z,1023.22
2018-12-29T10:40:02.937Z,1023.22
2018-12-29T10:45:03.428Z,1023.22
2018-12-29T10:50:02.936Z,1023.22
2018-12-29T10:55:03.472Z,1023.22
2018-12-29T11:00:03.001Z,1023.22
2018-12-29T11:05:03.620Z,1023.22
2018-12-29T11:10:03.236Z,1023.22
2018-12-29T11:15:02.825Z,1023.22
2018-12-29T11:20:03.408Z,1023.22
2018-12-29T11:25:03.020Z,1023.22
2018-12-29T11:30:03.557Z,1023.22
2018-12-29T11:35:03.239Z,1023.22
2018-12-29T11:40:02.860Z,1023.22
2018-12-29T11:45:03.398Z,1023.22
2018-12-29T11:50:02.987Z,1023.22
2018-12-29T11:55:03.533Z,1023.22
2018-12-29T12:00:03.989Z,1023.22
2018-12-29T12:05:02.986Z,1023.22
2018-12-29T12:10:03.637Z,1023.22
2018-12-29T12:15:03.389Z,1023.22
2018-12-29T12:20:02.974Z,1023.22
2018-12-29T12:25:03.567Z,1023.22
2018-12-29T12:30:03.134Z,1023.22
2018-12-29T12:35:02.740Z,1023.22
2018-12-29T12:40:03.356Z,1023.22
2018-12-29T12:45:03.200Z,1023.22
2018-12-29T12:50:03.624Z,1023.22
2018-12-29T12:55:02.920Z,1023.22
2018-12-29T13:00:04.843Z,1023.22
2018-12-29T13:05:02.974Z,1023.22
2018-12-29T13:10:04.738Z,1023.22
2018-12-29T13:15:02.844Z,1023.22
2018-12-29T13:20:05.532Z,1023.22
2018-12-29T13:25:03.114Z,1023.22
2018-12-29T13:30:02.728Z,1023.22
2018-12-29T13:35:03.379Z,1023.22
2018-12-29T13:40:03.048Z,1023.22
2018-12-29T13:45:03.632Z,1023.22
2018-12-29T13:50:03.430Z,1023.22
2018-12-29T13:55:02.997Z,1023.22
2018-12-29T14:00:03.736Z,1023.22
2018-12-29T14:05:03.437Z,1023.22
2018-12-29T14:10:03.146Z,1023.22
2018-12-29T14:15:03.721Z,1023.22
2018-12-29T14:20:03.264Z,1023.22
2018-12-29T14:25:02.855Z,1023.22
2018-12-29T14:30:03.366Z,1023.22
2018-12-29T14:35:02.981Z,1023.22
2018-12-29T14:40:04.506Z,1023.22
2018-12-29T14:45:03.524Z,1023.22
2018-12-29T14:50:03.061Z,1023.22
2018-12-29T14:55:02.711Z,1023.22
2018-12-29T15:00:03.276Z,1023.22
2018-12-29T15:05:02.903Z,1023.22
2018-12-29T15:10:03.553Z,1023.22
2018-12-29T15:15:03.261Z,1023.22
2018-12-29T15:20:02.923Z,1023.22
2018-12-29T15:25:03.522Z,1023.22
2018-12-29T15:30:03.229Z,1023.22
2018-12-29T15:35:03.039Z,1023.22
2018-12-29T15:40:02.787Z,1023.22
2018-12-29T15:45:03.427Z,1023.22
2018-12-29T15:50:03.135Z,1023.22
2018-12-29T15:55:02.743Z,1023.22
2018-12-29T16:00:03.411Z,1023.22
2018-12-29T16:05:03.068Z,1023.22
2018-12-29T16:10:02.841Z,1023.22
2018-12-29T16:15:03.559Z,1023.22
2018-12-29T16:20:03.403Z,1023.22
2018-12-29T16:25:02.991Z,1023.22
2018-12-29T16:29:15.444Z,1026.68
2018-12-29T16:30:03.635Z,1023.22
2018-12-29T16:35:03.284Z,1023.22
2018-12-29T16:40:04.236Z,1023.22
2018-12-29T16:45:03.584Z,1023.22
2018-12-29T16:50:03.216Z,1023.22
2018-12-29T16:55:02.782Z,1023.22
2018-12-29T17:00:03.531Z,1023.22
2018-12-29T17:05:03.298Z,1023.22
2018-12-29T17:10:03.070Z,1023.22
2018-12-29T17:15:03.697Z,1023.22
2018-12-29T17:20:04.517Z,1023.22
2018-12-29T17:25:02.697Z,1023.22
2018-12-29T17:30:03.406Z,1023.22
2018-12-29T17:35:03.091Z,1023.22
2018-12-29T17:38:12.209Z,1026.19
2018-12-29T17:40:04.088Z,1023.22
2018-12-29T17:45:03.262Z,1023.22
2018-12-29T17:50:02.998Z,1023.22
2018-12-29T17:55:03.589Z,1023.22
2018-12-29T18:00:03.238Z,1023.22
2018-12-29T18:02:55.071Z,1026.09
2018-12-29T18:05:03.982Z,1023.22
2018-12-29T18:06:55.483Z,1026.01
2018-12-29T18:10:03.686Z,1023.22
2018-12-29T18:14:08.133Z,1026.01
2018-12-29T18:15:03.320Z,1023.22
2018-12-29T18:15:23.754Z,1026.09
2018-12-29T18:20:02.961Z,1023.22
2018-12-29T18:25:03.633Z,1026.01
2018-12-29T18:30:03.836Z,1026.09
2018-12-29T18:35:03.103Z,1025.99
2018-12-29T18:40:03.295Z,1026.06
2018-12-29T18:45:03.460Z,1026.07
2018-12-29T18:50:03.658Z,1026.01
2018-12-29T18:55:02.818Z,1026.13
2018-12-29T19:00:03.010Z,1026.14
2018-12-29T19:05:03.103Z,1026.19
2018-12-29T19:10:03.346Z,1026.19
2018-12-29T19:15:04.773Z,1026.46
2018-12-29T19:20:03.135Z,1026.57
2018-12-29T19:25:03.401Z,1026.47
2018-12-29T19:30:05.841Z,1026.54
2018-12-29T19:35:04.851Z,1026.61
2018-12-29T19:45:03.064Z,1026.54
2018-12-29T19:50:03.542Z,1026.67
2018-12-29T19:55:04.950Z,1026.6
2018-12-29T20:00:04.128Z,1026.61
2018-12-29T20:05:03.387Z,1026.7
2018-12-29T20:10:03.530Z,1026.72
2018-12-29T20:15:03.701Z,1026.7
2018-12-29T20:20:02.878Z,1026.62
2018-12-29T20:25:02.980Z,1027
2018-12-29T20:30:03.243Z,1027.06
2018-12-29T20:35:03.385Z,1027.12
2018-12-29T20:40:03.613Z,1027.36
2018-12-29T20:45:03.762Z,1027.37
2018-12-29T20:50:13.033Z,1027.42
2018-12-29T20:55:03.230Z,1027.48
2018-12-29T21:00:03.415Z,1027.36
2018-12-29T21:05:03.594Z,1027.57
2018-12-29T21:10:02.801Z,1027.5
2018-12-29T21:15:02.936Z,1027.46
2018-12-29T21:25:03.877Z,1027.46
2018-12-29T21:30:03.099Z,1027.56
2018-12-29T21:35:03.332Z,1027.42
2018-12-29T21:40:03.704Z,1027.47
2018-12-29T21:45:03.012Z,1027.44
2018-12-29T21:50:03.159Z,1027.38
2018-12-29T21:55:03.390Z,1027.63
2018-12-29T22:00:03.454Z,1027.48
2018-12-29T22:05:03.590Z,1027.43
2018-12-29T22:10:02.805Z,1027.36
2018-12-29T22:15:02.967Z,1027.54
2018-12-29T22:20:03.064Z,1027.44
2018-12-29T22:25:03.228Z,1027.69
2018-12-29T22:30:03.394Z,1027.73
2018-12-29T22:35:03.505Z,1027.78
2018-12-29T22:40:03.722Z,1027.69
2018-12-29T22:45:02.797Z,1027.76
2018-12-29T22:50:02.997Z,1027.92
2018-12-29T22:55:03.093Z,1027.93
2018-12-29T23:00:03.755Z,1028
2018-12-29T23:05:03.306Z,1027.9
2018-12-29T23:10:03.545Z,1028.01
2018-12-29T23:15:03.838Z,1028.16
2018-12-29T23:20:04.192Z,1028.07
2018-12-29T23:25:04.777Z,1028.22
2018-12-29T23:30:02.837Z,1028.34
2018-12-29T23:35:03.065Z,1028.47
2018-12-29T23:40:03.338Z,1028.5
2018-12-29T23:45:04.728Z,1028.61
2018-12-29T23:50:03.043Z,1028.69
2018-12-29T23:55:03.295Z,1028.74
